createdAt,value
2017-03-14T00:00:16.088Z,0
2017-03-14T00:01:17.318Z,0
2017-03-14T00:02:18.576Z,0
2017-03-14T00:03:19.804Z,0
2017-03-14T00:04:21.078Z,0
2017-03-14T00:05:22.358Z,0
2017-03-14T00:06:23.577Z,0
2017-03-14T00:07:24.843Z,0
2017-03-14T00:08:26.064Z,0
2017-03-14T00:09:27.350Z,0
2017-03-14T00:10:28.669Z,0
2017-03-14T00:11:29.908Z,0
2017-03-14T00:12:31.192Z,0
2017-03-14T00:13:32.437Z,0
2017-03-14T00:14:33.659Z,0
2017-03-14T00:15:34.899Z,0
2017-03-14T00:16:36.154Z,0
2017-03-14T00:17:37.373Z,0
2017-03-14T00:18:38.626Z,0
2017-03-14T00:19:39.852Z,0
2017-03-14T00:20:41.121Z,0
2017-03-14T00:21:42.359Z,0
2017-03-14T00:22:43.745Z,0
2017-03-14T00:23:44.967Z,0
2017-03-14T00:24:46.218Z,0
2017-03-14T00:25:47.447Z,0
2017-03-14T00:26:48.782Z,0
2017-03-14T00:27:50.023Z,0
2017-03-14T00:28:51.395Z,0
2017-03-14T00:29:52.632Z,0
2017-03-14T00:30:53.870Z,0
2017-03-14T00:31:55.163Z,0
2017-03-14T00:32:56.390Z,0
2017-03-14T00:33:57.629Z,0
2017-03-14T00:34:58.859Z,0
2017-03-14T00:36:00.097Z,0
2017-03-14T00:37:01.328Z,0
2017-03-14T00:38:02.565Z,0
2017-03-14T00:39:03.836Z,0
2017-03-14T00:40:05.173Z,0
2017-03-14T00:41:06.454Z,0
2017-03-14T00:42:07.714Z,0
2017-03-14T00:43:08.921Z,0
2017-03-14T00:44:10.204Z,0
2017-03-14T00:45:11.437Z,0
2017-03-14T00:46:12.739Z,0
2017-03-14T00:47:13.886Z,0
2017-03-14T00:48:15.180Z,0
2017-03-14T00:49:16.414Z,0
2017-03-14T00:50:17.706Z,0
2017-03-14T00:51:19.050Z,0
2017-03-14T00:52:20.285Z,0
2017-03-14T00:53:21.644Z,0
2017-03-14T00:54:22.903Z,0
2017-03-14T00:55:24.142Z,0
2017-03-14T00:56:25.370Z,0
2017-03-14T00:57:26.609Z,0
2017-03-14T00:58:27.871Z,0
2017-03-14T00:59:29.122Z,0
2017-03-14T01:00:30.412Z,0
2017-03-14T01:01:31.673Z,0
2017-03-14T01:02:32.924Z,0
2017-03-14T01:03:34.165Z,0
2017-03-14T01:04:35.422Z,0
2017-03-14T01:05:36.733Z,0
2017-03-14T01:06:37.974Z,0
2017-03-14T01:07:39.213Z,0
2017-03-14T01:08:40.452Z,0
2017-03-14T01:09:41.716Z,0
2017-03-14T01:10:43.013Z,0
2017-03-14T01:11:44.200Z,0
2017-03-14T01:12:45.500Z,0
2017-03-14T01:13:46.740Z,0
2017-03-14T01:14:47.978Z,0
2017-03-14T01:15:49.213Z,0
2017-03-14T01:16:50.454Z,0
2017-03-14T01:17:51.708Z,0
2017-03-14T01:18:52.960Z,0
2017-03-14T01:19:54.213Z,0
2017-03-14T01:20:55.532Z,0
2017-03-14T01:21:56.771Z,0
2017-03-14T01:22:58.130Z,0
2017-03-14T01:23:59.478Z,0
2017-03-14T01:25:00.745Z,0
2017-03-14T01:26:02.000Z,0
2017-03-14T01:27:03.316Z,0
2017-03-14T01:28:04.553Z,0
2017-03-14T01:29:05.785Z,0
2017-03-14T01:30:07.103Z,0
2017-03-14T01:31:08.374Z,0
2017-03-14T01:32:09.577Z,0
2017-03-14T01:33:10.910Z,0
2017-03-14T01:34:12.151Z,0
2017-03-14T01:35:13.408Z,0
2017-03-14T01:36:14.751Z,0
2017-03-14T01:37:16.009Z,0
2017-03-14T01:38:17.281Z,0
2017-03-14T01:39:18.529Z,0
2017-03-14T01:40:19.785Z,0
2017-03-14T01:41:21.049Z,0
2017-03-14T01:42:22.267Z,0
2017-03-14T01:43:23.543Z,0
2017-03-14T01:44:24.824Z,0
2017-03-14T01:45:26.062Z,0
2017-03-14T01:46:27.290Z,0
2017-03-14T01:47:28.517Z,0
2017-03-14T01:48:29.760Z,0
2017-03-14T01:49:31.013Z,0
2017-03-14T01:50:32.264Z,0
2017-03-14T01:51:33.481Z,0
2017-03-14T01:52:34.768Z,0
2017-03-14T01:53:35.986Z,0
2017-03-14T01:54:37.299Z,0
2017-03-14T01:55:38.602Z,0
2017-03-14T01:56:39.942Z,0
2017-03-14T01:57:41.191Z,0
2017-03-14T01:58:42.432Z,0
2017-03-14T01:59:43.698Z,0
2017-03-14T02:00:44.935Z,0
2017-03-14T02:01:46.151Z,0
2017-03-14T02:02:47.496Z,0
2017-03-14T02:03:48.725Z,0
2017-03-14T02:04:49.991Z,0
2017-03-14T02:05:51.221Z,0
2017-03-14T02:06:52.462Z,0
2017-03-14T02:07:53.791Z,0
2017-03-14T02:08:55.072Z,0
2017-03-14T02:09:56.352Z,0
2017-03-14T02:10:57.572Z,0
2017-03-14T02:11:58.802Z,0
2017-03-14T02:13:00.044Z,0
2017-03-14T02:14:01.306Z,0
2017-03-14T02:15:02.547Z,0
2017-03-14T02:16:03.906Z,0
2017-03-14T02:17:05.143Z,0
2017-03-14T02:18:06.412Z,0
2017-03-14T02:19:07.615Z,0
2017-03-14T02:20:08.869Z,0
2017-03-14T02:21:10.091Z,0
2017-03-14T02:22:11.365Z,0
2017-03-14T02:23:12.595Z,0
2017-03-14T02:24:13.831Z,0
2017-03-14T02:25:15.063Z,0
2017-03-14T02:26:16.299Z,0
2017-03-14T02:27:17.574Z,0
2017-03-14T02:28:18.796Z,0
2017-03-14T02:29:20.037Z,0
2017-03-14T02:30:21.304Z,0
2017-03-14T02:31:22.502Z,0
2017-03-14T02:32:23.737Z,0
2017-03-14T02:33:25.059Z,0
2017-03-14T02:34:26.215Z,0
2017-03-14T02:35:27.499Z,0
2017-03-14T02:36:28.767Z,0
2017-03-14T02:37:29.965Z,0
2017-03-14T02:38:31.228Z,0
2017-03-14T02:39:32.504Z,0
2017-03-14T02:40:33.739Z,0
2017-03-14T02:41:35.050Z,0
2017-03-14T02:42:36.296Z,0
2017-03-14T02:43:37.536Z,0
2017-03-14T02:44:38.768Z,0
2017-03-14T02:45:40.003Z,0
2017-03-14T02:46:41.223Z,0
2017-03-14T02:47:42.548Z,0
2017-03-14T02:48:43.752Z,0
2017-03-14T02:49:45.114Z,0
2017-03-14T02:50:46.328Z,0
2017-03-14T02:51:47.566Z,0
2017-03-14T02:52:48.797Z,0
2017-03-14T02:53:50.030Z,0
2017-03-14T02:54:51.335Z,0
2017-03-14T02:55:52.610Z,0
2017-03-14T02:56:53.835Z,0
2017-03-14T02:57:55.096Z,0
2017-03-14T02:58:56.356Z,0
2017-03-14T02:59:57.603Z,0
2017-03-14T03:00:58.819Z,0
2017-03-14T03:02:00.058Z,0
2017-03-14T03:03:01.291Z,0
2017-03-14T03:04:02.550Z,0
2017-03-14T03:05:03.758Z,0
2017-03-14T03:06:05.111Z,0
2017-03-14T03:07:06.242Z,0
2017-03-14T03:08:07.609Z,0
2017-03-14T03:09:08.842Z,0
2017-03-14T03:10:10.075Z,0
2017-03-14T03:11:11.311Z,0
2017-03-14T03:12:12.541Z,0
2017-03-14T03:13:13.798Z,0
2017-03-14T03:14:15.099Z,0
2017-03-14T03:15:16.317Z,0
2017-03-14T03:16:17.560Z,0
2017-03-14T03:17:18.852Z,0
2017-03-14T03:18:20.080Z,0
2017-03-14T03:19:21.348Z,0
2017-03-14T03:20:22.589Z,0
2017-03-14T03:21:23.823Z,0
2017-03-14T03:22:25.057Z,0
2017-03-14T03:23:26.292Z,0
2017-03-14T03:24:27.538Z,0
2017-03-14T03:25:28.780Z,0
2017-03-14T03:26:30.015Z,0
2017-03-14T03:27:31.429Z,0
2017-03-14T03:28:32.717Z,0
2017-03-14T03:29:33.949Z,0
2017-03-14T03:30:35.191Z,0
2017-03-14T03:31:36.420Z,0
2017-03-14T03:32:37.785Z,0
2017-03-14T03:33:39.058Z,0
2017-03-14T03:34:40.294Z,0
2017-03-14T03:35:41.551Z,0
2017-03-14T03:36:42.765Z,0
2017-03-14T03:37:44.060Z,0
2017-03-14T03:38:45.284Z,0
2017-03-14T03:39:46.586Z,0
2017-03-14T03:40:47.837Z,0
2017-03-14T03:41:49.078Z,0
2017-03-14T03:42:50.357Z,0
2017-03-14T03:43:51.595Z,0
2017-03-14T03:44:52.842Z,0
2017-03-14T03:45:54.086Z,0
2017-03-14T03:46:55.408Z,0
2017-03-14T03:47:56.641Z,0
2017-03-14T03:48:57.872Z,0
2017-03-14T03:49:59.131Z,0
2017-03-14T03:51:00.344Z,0
2017-03-14T03:52:01.583Z,0
2017-03-14T03:53:02.832Z,0
2017-03-14T03:54:04.101Z,0
2017-03-14T03:55:05.324Z,0
2017-03-14T03:56:06.559Z,0
2017-03-14T03:57:07.815Z,0
2017-03-14T03:58:09.166Z,0
2017-03-14T03:59:10.424Z,0
2017-03-14T04:00:11.684Z,0
2017-03-14T04:01:12.916Z,0
2017-03-14T04:02:14.149Z,0
2017-03-14T04:03:15.428Z,0
2017-03-14T04:04:16.672Z,0
2017-03-14T04:05:17.916Z,0
2017-03-14T04:06:19.161Z,0
2017-03-14T04:07:20.396Z,0
2017-03-14T04:08:21.649Z,0
2017-03-14T04:09:22.889Z,0
2017-03-14T04:10:24.116Z,0
2017-03-14T04:11:25.413Z,0
2017-03-14T04:12:26.645Z,0
2017-03-14T04:13:27.886Z,0
2017-03-14T04:14:29.127Z,0
2017-03-14T04:15:30.390Z,0
2017-03-14T04:16:31.611Z,0
2017-03-14T04:17:32.946Z,0
2017-03-14T04:18:34.122Z,0
2017-03-14T04:19:35.365Z,0
2017-03-14T04:20:36.605Z,0
2017-03-14T04:21:37.873Z,0
2017-03-14T04:22:39.093Z,0
2017-03-14T04:23:40.338Z,0
2017-03-14T04:24:41.694Z,0
2017-03-14T04:25:43.013Z,0
2017-03-14T04:26:44.246Z,0
2017-03-14T04:27:45.479Z,0
2017-03-14T04:28:46.748Z,0
2017-03-14T04:29:48.023Z,0
2017-03-14T04:30:49.258Z,0
2017-03-14T04:31:50.541Z,0
2017-03-14T04:32:51.750Z,0
2017-03-14T04:33:52.979Z,0
2017-03-14T04:34:54.225Z,0
2017-03-14T04:35:55.485Z,0
2017-03-14T04:36:56.741Z,0
2017-03-14T04:37:58.093Z,0
2017-03-14T04:38:59.336Z,0
2017-03-14T04:40:00.596Z,0
2017-03-14T04:41:01.849Z,0
2017-03-14T04:42:03.100Z,0
2017-03-14T04:43:04.332Z,0
2017-03-14T04:44:05.589Z,0
2017-03-14T04:45:06.898Z,0
2017-03-14T04:46:08.115Z,0
2017-03-14T04:47:09.398Z,0
2017-03-14T04:48:10.634Z,0
2017-03-14T04:49:11.918Z,0
2017-03-14T04:50:13.150Z,0
2017-03-14T04:51:14.476Z,0
2017-03-14T04:52:15.755Z,0
2017-03-14T04:53:16.991Z,0
2017-03-14T04:54:18.225Z,0
2017-03-14T04:55:19.472Z,0
2017-03-14T04:56:20.718Z,0
2017-03-14T04:57:21.948Z,0
2017-03-14T04:58:23.199Z,0
2017-03-14T04:59:24.448Z,0
2017-03-14T05:00:25.684Z,0
2017-03-14T05:01:26.926Z,0
2017-03-14T05:02:28.221Z,0
2017-03-14T05:03:29.519Z,0
2017-03-14T05:04:30.925Z,0
2017-03-14T05:05:32.150Z,0
2017-03-14T05:06:33.392Z,0
2017-03-14T05:07:34.647Z,0
2017-03-14T05:08:35.929Z,0
2017-03-14T05:09:37.168Z,0
2017-03-14T05:10:38.452Z,0
2017-03-14T05:11:39.747Z,0
2017-03-14T05:12:41.008Z,0
2017-03-14T05:13:42.253Z,0
2017-03-14T05:14:43.484Z,0
2017-03-14T05:15:44.853Z,4
2017-03-14T05:16:46.121Z,4
2017-03-14T05:17:47.402Z,4
2017-03-14T05:18:48.614Z,0
2017-03-14T05:19:49.853Z,4
2017-03-14T05:20:51.162Z,4
2017-03-14T05:21:52.339Z,4
2017-03-14T05:22:53.764Z,4
2017-03-14T05:23:55.026Z,4
2017-03-14T05:24:56.257Z,8
2017-03-14T05:25:57.492Z,8
2017-03-14T05:26:58.722Z,12
2017-03-14T05:27:59.993Z,12
2017-03-14T05:29:01.248Z,16
2017-03-14T05:30:02.488Z,20
2017-03-14T05:31:03.722Z,20
2017-03-14T05:32:04.970Z,24
2017-03-14T05:33:06.228Z,24
2017-03-14T05:34:07.619Z,28
2017-03-14T05:35:08.849Z,32
2017-03-14T05:36:10.088Z,32
2017-03-14T05:37:11.375Z,40
2017-03-14T05:38:12.606Z,44
2017-03-14T05:39:13.865Z,44
2017-03-14T05:40:15.149Z,52
2017-03-14T05:41:16.385Z,60
2017-03-14T05:42:17.654Z,64
2017-03-14T05:43:18.933Z,76
2017-03-14T05:44:20.149Z,80
2017-03-14T05:45:21.388Z,88
2017-03-14T05:46:22.622Z,100
2017-03-14T05:47:23.932Z,104
2017-03-14T05:48:25.208Z,112
2017-03-14T05:49:26.440Z,124
2017-03-14T05:50:27.697Z,140
2017-03-14T05:51:28.951Z,152
2017-03-14T05:52:30.175Z,168
2017-03-14T05:53:31.441Z,180
2017-03-14T05:54:32.664Z,196
2017-03-14T05:55:33.916Z,208
2017-03-14T05:56:35.157Z,220
2017-03-14T05:57:36.391Z,236
2017-03-14T05:58:37.627Z,256
2017-03-14T05:59:38.873Z,272
2017-03-14T06:00:40.106Z,296
2017-03-14T06:01:41.459Z,320
2017-03-14T06:02:42.699Z,348
2017-03-14T06:03:43.963Z,372
2017-03-14T06:04:45.171Z,400
2017-03-14T06:05:46.507Z,428
2017-03-14T06:06:47.771Z,460
2017-03-14T06:07:49.023Z,492
2017-03-14T06:08:50.290Z,524
2017-03-14T06:09:51.529Z,564
2017-03-14T06:10:52.756Z,600
2017-03-14T06:11:53.992Z,640
2017-03-14T06:12:55.242Z,664
2017-03-14T06:13:56.641Z,676
2017-03-14T06:14:57.868Z,668
2017-03-14T06:15:59.102Z,660
2017-03-14T06:17:00.337Z,644
2017-03-14T06:18:01.592Z,636
2017-03-14T06:19:02.918Z,636
2017-03-14T06:20:04.165Z,644
2017-03-14T06:21:05.436Z,664
2017-03-14T06:22:06.656Z,696
2017-03-14T06:23:07.903Z,728
2017-03-14T06:24:09.174Z,768
2017-03-14T06:25:10.377Z,808
2017-03-14T06:26:11.701Z,840
2017-03-14T06:27:12.916Z,864
2017-03-14T06:28:14.156Z,888
2017-03-14T06:29:15.395Z,916
2017-03-14T06:30:16.628Z,968
2017-03-14T06:31:17.859Z,1024
2017-03-14T06:32:19.124Z,1072
2017-03-14T06:33:20.353Z,1112
2017-03-14T06:34:21.686Z,1144
2017-03-14T06:35:22.944Z,1180
2017-03-14T06:36:24.152Z,1224
2017-03-14T06:37:25.391Z,1288
2017-03-14T06:38:26.625Z,1376
2017-03-14T06:39:27.971Z,1484
2017-03-14T06:40:29.235Z,1620
2017-03-14T06:41:30.477Z,1776
2017-03-14T06:42:31.721Z,1944
2017-03-14T06:43:32.929Z,2120
2017-03-14T06:44:34.182Z,2324
2017-03-14T06:45:35.695Z,2544
2017-03-14T06:46:36.905Z,2756
2017-03-14T06:47:38.141Z,2964
2017-03-14T06:48:39.380Z,3148
2017-03-14T06:49:40.618Z,3296
2017-03-14T06:50:42.011Z,3392
2017-03-14T06:51:43.301Z,3452
2017-03-14T06:52:44.538Z,3492
2017-03-14T06:53:45.781Z,3560
2017-03-14T06:54:47.061Z,3648
2017-03-14T06:55:48.386Z,3780
2017-03-14T06:56:49.715Z,3948
2017-03-14T06:57:50.987Z,4160
2017-03-14T06:58:52.243Z,4408
2017-03-14T06:59:53.481Z,4752
2017-03-14T07:00:54.741Z,5148
2017-03-14T07:01:56.056Z,5572
2017-03-14T07:02:57.351Z,6564
2017-03-14T07:03:58.604Z,6144
2017-03-14T07:04:59.837Z,6312
2017-03-14T07:06:01.120Z,6776
2017-03-14T07:07:02.359Z,7060
2017-03-14T07:08:03.816Z,6628
2017-03-14T07:09:05.069Z,6544
2017-03-14T07:10:06.282Z,6592
2017-03-14T07:11:07.597Z,6524
2017-03-14T07:12:08.838Z,6480
2017-03-14T07:13:10.082Z,6524
2017-03-14T07:14:11.322Z,6604
2017-03-14T07:15:12.561Z,6692
2017-03-14T07:16:13.799Z,7248
2017-03-14T07:17:15.071Z,7640
2017-03-14T07:18:16.275Z,7096
2017-03-14T07:19:17.534Z,6620
2017-03-14T07:20:18.749Z,6664
2017-03-14T07:21:20.109Z,7080
2017-03-14T07:22:21.416Z,8388
2017-03-14T07:23:22.738Z,8856
2017-03-14T07:24:23.967Z,8904
2017-03-14T07:25:25.225Z,9124
2017-03-14T07:26:26.500Z,9416
2017-03-14T07:27:27.841Z,10828
2017-03-14T07:28:29.092Z,11536
2017-03-14T07:29:30.332Z,11728
2017-03-14T07:30:31.599Z,12192
2017-03-14T07:31:32.829Z,13556
2017-03-14T07:32:34.067Z,14432
2017-03-14T07:33:35.332Z,17056
2017-03-14T07:34:36.733Z,18304
2017-03-14T07:35:37.990Z,17248
2017-03-14T07:36:39.312Z,15584
2017-03-14T07:37:40.566Z,9940
2017-03-14T07:38:41.801Z,8144
2017-03-14T07:39:43.045Z,7360
2017-03-14T07:40:44.283Z,6788
2017-03-14T07:41:45.528Z,6388
2017-03-14T07:42:46.768Z,6100
2017-03-14T07:43:48.005Z,5616
2017-03-14T07:44:49.262Z,5680
2017-03-14T07:45:50.498Z,5464
2017-03-14T07:46:51.805Z,5140
2017-03-14T07:47:53.026Z,5072
2017-03-14T07:48:54.276Z,4876
2017-03-14T07:49:55.515Z,4736
2017-03-14T07:50:56.781Z,4784
2017-03-14T07:51:58.056Z,4704
2017-03-14T07:52:59.321Z,4876
2017-03-14T07:54:00.561Z,4840
2017-03-14T07:55:01.858Z,4944
2017-03-14T07:56:03.098Z,4744
2017-03-14T07:57:04.306Z,4768
2017-03-14T07:58:05.570Z,4588
2017-03-14T07:59:06.799Z,4448
2017-03-14T08:00:08.073Z,4580
2017-03-14T08:01:09.402Z,4592
2017-03-14T08:02:10.635Z,4380
2017-03-14T08:03:11.876Z,4496
2017-03-14T08:04:13.139Z,4560
2017-03-14T08:05:14.354Z,4552
2017-03-14T08:06:15.603Z,4720
2017-03-14T08:07:17.057Z,4688
2017-03-14T08:08:18.297Z,4972
2017-03-14T08:09:19.550Z,5152
2017-03-14T08:10:20.814Z,5468
2017-03-14T08:11:22.039Z,5684
2017-03-14T08:12:23.364Z,5972
2017-03-14T08:13:24.624Z,5892
2017-03-14T08:14:25.880Z,5292
2017-03-14T08:15:27.135Z,5112
2017-03-14T08:16:28.394Z,5388
2017-03-14T08:17:29.728Z,5484
2017-03-14T08:18:30.981Z,5652
2017-03-14T08:19:32.240Z,5596
2017-03-14T08:20:33.485Z,5960
2017-03-14T08:21:34.712Z,6464
2017-03-14T08:22:35.947Z,6720
2017-03-14T08:23:37.208Z,6540
2017-03-14T08:24:38.557Z,6272
2017-03-14T08:25:39.864Z,6320
2017-03-14T08:26:41.122Z,6996
2017-03-14T08:27:42.363Z,7684
2017-03-14T08:28:43.632Z,7540
2017-03-14T08:29:44.864Z,7444
2017-03-14T08:30:46.161Z,6756
2017-03-14T08:31:47.396Z,6300
2017-03-14T08:32:48.699Z,6124
2017-03-14T08:33:49.935Z,6172
2017-03-14T08:34:51.198Z,5744
2017-03-14T08:35:52.441Z,6116
2017-03-14T08:36:53.699Z,6188
2017-03-14T08:37:54.947Z,5880
2017-03-14T08:38:56.192Z,5824
2017-03-14T08:39:57.436Z,6168
2017-03-14T08:40:58.708Z,6184
2017-03-14T08:42:00.001Z,6160
2017-03-14T08:43:01.324Z,6056
2017-03-14T08:44:02.583Z,5788
2017-03-14T08:45:03.865Z,5728
2017-03-14T08:46:05.151Z,5676
2017-03-14T08:47:06.346Z,5812
2017-03-14T08:48:07.571Z,5796
2017-03-14T08:49:08.816Z,5500
2017-03-14T08:50:10.071Z,5208
2017-03-14T08:51:11.362Z,5248
2017-03-14T08:52:12.642Z,5224
2017-03-14T08:53:13.884Z,5524
2017-03-14T08:54:15.125Z,5572
2017-03-14T08:55:16.404Z,5560
2017-03-14T08:56:17.654Z,5688
2017-03-14T08:57:18.918Z,5792
2017-03-14T08:58:20.189Z,6252
2017-03-14T08:59:21.538Z,6628
2017-03-14T09:00:22.790Z,6496
2017-03-14T09:01:24.011Z,6664
2017-03-14T09:02:25.271Z,6740
2017-03-14T09:03:26.523Z,6720
2017-03-14T09:04:27.771Z,6704
2017-03-14T09:05:29.006Z,6904
2017-03-14T09:06:30.241Z,6660
2017-03-14T09:07:31.485Z,7008
2017-03-14T09:08:32.734Z,6860
2017-03-14T09:09:33.962Z,6576
2017-03-14T09:10:35.273Z,6340
2017-03-14T09:11:36.512Z,6360
2017-03-14T09:12:37.770Z,6480
2017-03-14T09:13:38.985Z,6588
2017-03-14T09:14:40.217Z,6656
2017-03-14T09:15:41.506Z,6684
2017-03-14T09:16:42.746Z,6744
2017-03-14T09:17:44.086Z,6968
2017-03-14T09:18:45.385Z,7308
2017-03-14T09:19:46.631Z,7468
2017-03-14T09:20:47.882Z,7568
2017-03-14T09:21:49.137Z,7412
2017-03-14T09:22:50.481Z,7592
2017-03-14T09:23:51.725Z,7632
2017-03-14T09:24:52.962Z,8312
2017-03-14T09:25:54.203Z,8548
2017-03-14T09:26:55.440Z,9188
2017-03-14T09:27:56.684Z,9304
2017-03-14T09:28:57.966Z,9652
2017-03-14T09:29:59.302Z,10188
2017-03-14T09:31:00.511Z,11964
2017-03-14T09:32:01.757Z,13316
2017-03-14T09:33:02.994Z,15060
2017-03-14T09:34:04.233Z,19072
2017-03-14T09:35:05.504Z,26272
2017-03-14T09:36:06.895Z,31008
2017-03-14T09:37:08.133Z,20544
2017-03-14T09:38:09.376Z,21824
2017-03-14T09:39:10.623Z,28576
2017-03-14T09:40:11.846Z,18048
2017-03-14T09:41:13.207Z,19136
2017-03-14T09:42:14.436Z,21344
2017-03-14T09:43:15.688Z,23968
2017-03-14T09:44:16.925Z,27744
2017-03-14T09:45:18.168Z,24800
2017-03-14T09:46:19.471Z,29760
2017-03-14T09:47:20.714Z,27104
2017-03-14T09:48:21.992Z,22432
2017-03-14T09:49:23.228Z,33888
2017-03-14T09:50:24.476Z,32512
2017-03-14T09:51:25.713Z,29664
2017-03-14T09:52:26.963Z,30400
2017-03-14T09:53:28.245Z,30784
2017-03-14T09:54:29.498Z,30816
2017-03-14T09:55:30.842Z,28256
2017-03-14T09:56:32.084Z,32000
2017-03-14T09:57:33.484Z,32896
2017-03-14T09:58:34.717Z,32128
2017-03-14T09:59:35.960Z,32256
2017-03-14T10:00:37.202Z,32160
2017-03-14T10:01:38.444Z,34112
2017-03-14T10:02:39.715Z,35104
2017-03-14T10:03:40.969Z,39104
2017-03-14T10:04:42.217Z,41504
2017-03-14T10:05:43.650Z,43520
2017-03-14T10:06:44.946Z,45536
2017-03-14T10:07:46.245Z,47936
2017-03-14T10:08:47.497Z,50080
2017-03-14T10:09:48.748Z,48288
2017-03-14T10:10:50.001Z,46720
2017-03-14T10:11:51.381Z,54240
2017-03-14T10:12:52.667Z,55360
2017-03-14T10:13:53.934Z,54528
2017-03-14T10:14:55.190Z,55104
2017-03-14T10:15:56.457Z,53504
2017-03-14T10:16:57.690Z,53792
2017-03-14T10:17:58.966Z,54176
2017-03-14T10:19:00.220Z,56352
2017-03-14T10:20:01.570Z,56832
2017-03-14T10:21:02.835Z,57248
2017-03-14T10:22:04.088Z,56576
2017-03-14T10:23:05.349Z,50912
2017-03-14T10:24:06.619Z,50560
2017-03-14T10:25:07.934Z,48256
2017-03-14T10:26:09.167Z,38752
2017-03-14T10:27:10.422Z,48320
2017-03-14T10:28:11.669Z,47392
2017-03-14T10:29:12.949Z,55392
2017-03-14T10:30:14.191Z,48736
2017-03-14T10:31:15.516Z,45248
2017-03-14T10:32:16.779Z,34912
2017-03-14T10:33:18.028Z,48288
2017-03-14T10:34:19.290Z,50976
2017-03-14T10:35:20.538Z,48576
2017-03-14T10:36:21.807Z,46240
2017-03-14T10:37:23.056Z,43840
2017-03-14T10:38:24.301Z,46816
2017-03-14T10:39:25.604Z,45472
2017-03-14T10:40:26.820Z,44640
2017-03-14T10:41:28.067Z,44768
2017-03-14T10:42:29.361Z,37184
2017-03-14T10:43:30.569Z,27520
2017-03-14T10:44:31.926Z,27328
2017-03-14T10:45:33.191Z,45216
2017-03-14T10:46:34.468Z,43520
2017-03-14T10:47:35.683Z,46400
2017-03-14T10:48:36.992Z,45120
2017-03-14T10:49:38.297Z,46144
2017-03-14T10:50:39.573Z,41344
2017-03-14T10:51:40.842Z,30976
2017-03-14T10:52:42.071Z,14648
2017-03-14T10:53:43.322Z,11580
2017-03-14T10:54:44.590Z,11240
2017-03-14T10:55:45.928Z,11016
2017-03-14T10:56:47.189Z,10812
2017-03-14T10:57:48.452Z,10576
2017-03-14T10:58:49.697Z,10428
2017-03-14T10:59:50.948Z,10104
2017-03-14T11:00:52.207Z,9636
2017-03-14T11:01:53.495Z,9524
2017-03-14T11:02:54.835Z,9552
2017-03-14T11:03:56.133Z,9396
2017-03-14T11:04:57.429Z,9724
2017-03-14T11:05:58.683Z,9584
2017-03-14T11:06:59.950Z,9392
2017-03-14T11:08:01.236Z,9316
2017-03-14T11:09:02.490Z,9348
2017-03-14T11:10:03.740Z,9324
2017-03-14T11:11:04.987Z,9248
2017-03-14T11:12:06.238Z,9292
2017-03-14T11:13:07.477Z,9628
2017-03-14T11:14:08.889Z,9972
2017-03-14T11:15:10.023Z,9908
2017-03-14T11:16:11.282Z,9848
2017-03-14T11:17:12.549Z,9736
2017-03-14T11:18:13.786Z,9664
2017-03-14T11:19:15.031Z,9724
2017-03-14T11:20:16.269Z,9572
2017-03-14T11:21:17.559Z,9344
2017-03-14T11:22:18.820Z,9184
2017-03-14T11:23:20.075Z,9040
2017-03-14T11:24:21.323Z,9184
2017-03-14T11:25:22.565Z,9056
2017-03-14T11:26:23.822Z,8900
2017-03-14T11:27:25.071Z,8996
2017-03-14T11:28:26.302Z,9808
2017-03-14T11:29:27.567Z,9656
2017-03-14T11:30:28.819Z,10004
2017-03-14T11:31:30.061Z,11012
2017-03-14T11:32:31.435Z,12104
2017-03-14T11:33:32.694Z,11896
2017-03-14T11:34:33.941Z,11460
2017-03-14T11:35:35.198Z,12652
2017-03-14T11:36:36.446Z,13424
2017-03-14T11:37:37.690Z,13392
2017-03-14T11:38:38.932Z,13800
2017-03-14T11:39:40.180Z,13028
2017-03-14T11:40:41.417Z,12080
2017-03-14T11:41:42.655Z,12156
2017-03-14T11:42:43.897Z,13756
2017-03-14T11:43:45.144Z,14464
2017-03-14T11:44:46.388Z,14408
2017-03-14T11:45:47.650Z,13416
2017-03-14T11:46:48.921Z,13456
2017-03-14T11:47:50.170Z,15504
2017-03-14T11:48:51.430Z,15796
2017-03-14T11:49:52.677Z,15608
2017-03-14T11:50:53.915Z,15736
2017-03-14T11:51:55.287Z,16364
2017-03-14T11:52:56.493Z,16272
2017-03-14T11:53:57.757Z,16100
2017-03-14T11:54:59.004Z,15528
2017-03-14T11:56:00.260Z,15752
2017-03-14T11:57:01.635Z,14944
2017-03-14T11:58:03.025Z,15136
2017-03-14T11:59:04.260Z,14012
2017-03-14T12:00:05.520Z,14400
2017-03-14T12:01:06.758Z,13668
2017-03-14T12:02:08.006Z,13804
2017-03-14T12:03:09.268Z,12992
2017-03-14T12:04:10.543Z,12796
2017-03-14T12:05:11.895Z,12316
2017-03-14T12:06:13.146Z,11140
2017-03-14T12:07:14.399Z,10956
2017-03-14T12:08:15.695Z,12668
2017-03-14T12:09:16.970Z,12216
2017-03-14T12:10:18.203Z,12344
2017-03-14T12:11:19.529Z,12492
2017-03-14T12:12:20.799Z,13196
2017-03-14T12:13:22.046Z,13328
2017-03-14T12:14:23.291Z,13592
2017-03-14T12:15:24.558Z,13048
2017-03-14T12:16:25.845Z,12680
2017-03-14T12:17:27.092Z,12836
2017-03-14T12:18:28.339Z,12768
2017-03-14T12:19:29.601Z,12772
2017-03-14T12:20:30.825Z,13048
2017-03-14T12:21:32.074Z,13096
2017-03-14T12:22:33.346Z,13332
2017-03-14T12:23:34.592Z,13144
2017-03-14T12:24:35.840Z,13264
2017-03-14T12:25:37.087Z,12920
2017-03-14T12:26:38.337Z,12628
2017-03-14T12:27:39.631Z,12252
2017-03-14T12:28:40.876Z,12520
2017-03-14T12:29:42.126Z,12684
2017-03-14T12:30:43.424Z,13224
2017-03-14T12:31:44.693Z,13396
2017-03-14T12:32:45.926Z,13536
2017-03-14T12:33:47.161Z,13440
2017-03-14T12:34:48.418Z,13772
2017-03-14T12:35:49.694Z,13932
2017-03-14T12:36:50.912Z,13616
2017-03-14T12:37:52.159Z,13300
2017-03-14T12:38:53.453Z,13016
2017-03-14T12:39:54.723Z,12688
2017-03-14T12:40:55.970Z,12400
2017-03-14T12:41:57.213Z,12008
2017-03-14T12:42:58.464Z,11492
2017-03-14T12:43:59.704Z,10972
2017-03-14T12:45:00.944Z,10412
2017-03-14T12:46:02.195Z,9944
2017-03-14T12:47:03.608Z,9412
2017-03-14T12:48:04.801Z,9036
2017-03-14T12:49:06.046Z,8832
2017-03-14T12:50:07.391Z,8596
2017-03-14T12:51:08.632Z,8572
2017-03-14T12:52:09.879Z,8672
2017-03-14T12:53:11.166Z,9212
2017-03-14T12:54:12.419Z,9316
2017-03-14T12:55:13.677Z,9812
2017-03-14T12:56:14.933Z,9744
2017-03-14T12:57:16.201Z,9824
2017-03-14T12:58:17.459Z,10060
2017-03-14T12:59:18.732Z,9604
2017-03-14T13:00:19.988Z,9424
2017-03-14T13:01:21.307Z,9736
2017-03-14T13:02:22.588Z,9492
2017-03-14T13:03:23.821Z,9396
2017-03-14T13:04:25.081Z,8856
2017-03-14T13:05:26.345Z,8692
2017-03-14T13:06:27.579Z,8472
2017-03-14T13:07:28.829Z,8324
2017-03-14T13:08:30.068Z,8460
2017-03-14T13:09:31.315Z,8392
2017-03-14T13:10:32.580Z,8476
2017-03-14T13:11:33.822Z,8616
2017-03-14T13:12:35.061Z,8332
2017-03-14T13:13:36.331Z,7896
2017-03-14T13:14:37.556Z,7660
2017-03-14T13:15:38.798Z,7580
2017-03-14T13:16:40.055Z,7772
2017-03-14T13:17:41.313Z,7172
2017-03-14T13:18:42.668Z,6832
2017-03-14T13:19:43.939Z,6816
2017-03-14T13:20:45.256Z,6588
2017-03-14T13:21:46.505Z,6568
2017-03-14T13:22:47.760Z,6784
2017-03-14T13:23:49.001Z,6736
2017-03-14T13:24:50.252Z,6496
2017-03-14T13:25:51.510Z,6472
2017-03-14T13:26:52.782Z,6424
2017-03-14T13:27:54.031Z,7188
2017-03-14T13:28:55.339Z,7384
2017-03-14T13:29:56.595Z,6868
2017-03-14T13:30:57.809Z,7112
2017-03-14T13:31:59.047Z,7256
2017-03-14T13:33:00.405Z,6812
2017-03-14T13:34:01.647Z,6292
2017-03-14T13:35:02.890Z,6044
2017-03-14T13:36:04.152Z,6472
2017-03-14T13:37:05.383Z,6828
2017-03-14T13:38:06.634Z,6644
2017-03-14T13:39:07.885Z,5960
2017-03-14T13:40:09.149Z,5860
2017-03-14T13:41:10.391Z,5740
2017-03-14T13:42:11.646Z,5924
2017-03-14T13:43:12.889Z,6040
2017-03-14T13:44:14.137Z,5980
2017-03-14T13:45:15.442Z,6316
2017-03-14T13:46:16.757Z,6040
2017-03-14T13:47:17.956Z,6432
2017-03-14T13:48:19.203Z,7064
2017-03-14T13:49:20.466Z,7296
2017-03-14T13:50:21.730Z,6868
2017-03-14T13:51:22.949Z,6724
2017-03-14T13:52:24.240Z,6732
2017-03-14T13:53:25.567Z,6708
2017-03-14T13:54:26.840Z,6580
2017-03-14T13:55:28.112Z,6876
2017-03-14T13:56:29.378Z,7188
2017-03-14T13:57:30.609Z,6916
2017-03-14T13:58:31.895Z,6296
2017-03-14T13:59:33.143Z,5980
2017-03-14T14:00:34.396Z,5880
2017-03-14T14:01:35.666Z,6580
2017-03-14T14:02:36.902Z,6804
2017-03-14T14:03:38.261Z,6788
2017-03-14T14:04:39.706Z,7732